This demonstration page uses our WeatherBlox Daily Observations layout. Learn more.

38.88101, -77.10428

Hourly Observations for September 19, 2019

Temp ( °F °C ) Dew Point ( °F °C ) Humidity (%) Winds ( mph kmh ) Pressure ( in mb ) Visibility ( mi km ) Precip ( " mm )
12:52 am 00:52 Mostly Clear 63 17.2 55 12.8 76 76 E 5 7 30.27 1025 10 16.09344 0 0
1:52 am 01:52 Clear 62 16.7 54 12.2 75 75 ENE 6 9 30.27 1025 10 16.09344 0 0
2:52 am 02:52 Clear 62 16.7 55 12.8 78 78 ENE 6 9 30.27 1025 10 16.09344 0 0
3:52 am 03:52 Clear 61 16.1 54 12.2 78 78 ENE 6 9 30.27 1025 10 16.09344 0 0
4:52 am 04:52 Clear 60 15.6 53 11.7 78 78 N 6 9 30.3 1026 10 16.09344 0 0
5:52 am 05:52 Clear 60 15.6 52 11.1 75 75 VRB 6 9 30.3 1026 10 16.09344 0 0
6:52 am 06:52 Partly Cloudy 60 15.6 51 10.6 72 72 NE 6 9 30.3 1026 10 16.09344 0 0
7:52 am 07:52 Mostly Cloudy 61 16.1 52 11.1 72 72 ENE 8 13 30.33 1027 10 16.09344 0 0
8:52 am 08:52 Mostly Cloudy 63 17.2 50 10 63 63 E 9 15 30.33 1027 10 16.09344 0 0
9:52 am 09:52 Mostly Cloudy 65 18.3 48 8.9 54 54 NE 6 9 30.33 1027 10 16.09344 0 0
10:52 am 10:52 Mostly Cloudy 67 19.4 48 8.9 51 51 E 9 15 30.36 1028 10 16.09344 0 0
11:52 am 11:52 Mostly Cloudy 70 21.1 45 7.2 41 41 NNE 7 11 30.36 1028 10 16.09344 0 0
12:52 pm 12:52 Mostly Cloudy 71 21.7 43 6.1 36 36 NNE 7 11 30.33 1027 10 16.09344 0 0
1:52 pm 13:52 Mostly Cloudy 74 23.3 37 2.8 26 26 NNE 9 15 30.33 1027 10 16.09344 0 0
2:52 pm 14:52 Partly Cloudy 74 23.3 34 1.1 23 23 VRB 3 6 30.3 1026 10 16.09344 0 0
3:52 pm 15:52 Sunny 75 23.9 34 1.1 22 22 NE 3 6 30.27 1025 10 16.09344 0 0
4:52 pm 16:52 Mostly Sunny 75 23.9 34 1.1 22 22 E 7 11 30.27 1025 10 16.09344 0 0
5:52 pm 17:52 Mostly Sunny 73 22.8 36 2.2 26 26 ESE 8 13 30.27 1025 10 16.09344 0 0
6:52 pm 18:52 Sunny 70 21.1 42 5.6 37 37 E 9 15 30.27 1025 10 16.09344 0 0
6:58 pm 18:58 Mostly Sunny 70 21.1 42 5.6 37 37 E 10 17 30.3 1026 10 16.09344 0 0
7:52 pm 19:52 Mostly Clear 68 20 48 8.9 49 49 E 7 11 30.3 1026 10 16.09344 0 0
8:52 pm 20:52 Mostly Clear 66 18.9 48 8.9 52 52 ESE 8 13 30.3 1026 10 16.09344 0 0
9:52 pm 21:52 Mostly Clear 63 17.2 49 9.4 60 60 SE 3 6 30.3 1026 10 16.09344 0 0
10:52 pm 22:52 Mostly Clear 63 17.2 50 10 63 63 Calm 30.3 1026 10 16.09344 0 0
11:52 pm 23:52 Mostly Clear 63 17.2 51 10.6 65 65 Calm 30.3 1026 10 16.09344 0 0

Powered by AerisWeather